Airway Heights, WA

11:19 AM PST on January 28, 2015 (GMT -0800)
Hayford | Change Station
CLOSE
Current Station
Personal Weather Station
Location: Cheney, WA
Elevation: 2441 ft
Nearby Weather Stations

Elev 2441 ft 47.58 °N, 117.54 °W | Updated 8 minutes ago

Overcast
Overcast
35.1 °F
Feels Like 35 °F
N
2.7
Wind Variable Wind from NE

Today
High -- | Low -- °F
--% Chance of Precip.
Yesterday
High -- | Low -- °F
Precip. -- in
7:22 AM 4:45 PM
Waxing Gibbous, 67% visible
Pressure 30.43 in
Visibility 0.2 miles
Clouds
Windchill 35 °F
Dew Point 35 °F
Humidity 99%
Rainfall 0.00 in
Snow Depth Not available.
UV Not available.
Pollen .90 out of 12
Air Quality Not available.
Flu Activity Not available.
METAR KGEG 281853Z 06007KT 1/4SM R21/2200FT FG VV002 02/02 A3037 RMK AO2 TWR VIS 1/2 SLP304 T00170017

More Conditions Fewer Conditions

Pressure 30.43 in
Visibility 0.2 miles
Clouds
Windchill 35 °F
Dew Point 35 °F
Humidity 99%
Rainfall 0.00 in
Snow Depth Not available.
UV Not available.
Pollen .90 out of 12
Air Quality Not available.
Flu Activity Not available.
METAR KGEG 281853Z 06007KT 1/4SM R21/2200FT FG VV002 02/02 A3037 RMK AO2 TWR VIS 1/2 SLP304 T00170017

More Conditions Fewer Conditions

Nowcast | as of 10:17 am PST on January 28, 2015

Areas of dense fog exist this morning on the higher benches around the Spokane area including the West Plains and South Hill. Travelers transiting these areas should be prepared for dramatically reduced visibilities. Fog will begin to thin by early afternoon but patchy dense fog will continue for much of the day.

×

10-Day Weather Forecast

Almanac

Astronomy

Jan. 28, 2015 Rise Set
Actual Time
Civil Twilight
Nautical Twilight
Astronomical Twilight
Moon
Length of Visible Light
Length of Day
Tomorrow will be .
, % of the Moon is Illuminated

Today's Extremes

State Highs State Lows

Community

WunderPhotos

Upload Photos

1,791,245 photos uploaded!

WunderBlogs® & News

Nearby

Air Quality

  Air Quality AQ Index Pollutant
Not available.

Snow Depth

Station Depth Elevation

Earthquake Activity

City Distance Mag. Time & Date
Minimum magnitude displayed is 2.5.

Coastal Water Temperatures

Place Temperature

Nearby Weather Stations